createdAt,value
2018-06-25T00:00:05.423Z,981.25
2018-06-25T00:01:05.445Z,981.37
2018-06-25T00:02:05.255Z,981.25
2018-06-25T00:03:04.955Z,981.25
2018-06-25T00:04:05.131Z,981.31
2018-06-25T00:05:05.373Z,981.31
2018-06-25T00:06:05.113Z,981.26
2018-06-25T00:07:05.637Z,981.29
2018-06-25T00:08:05.635Z,981.37
2018-06-25T00:09:05.196Z,981.23
2018-06-25T00:10:05.965Z,981.23
2018-06-25T00:11:05.476Z,981.23
2018-06-25T00:12:05.027Z,981.20
2018-06-25T00:13:05.931Z,981.26
2018-06-25T00:14:06.094Z,981.12
2018-06-25T00:15:05.945Z,981.23
2018-06-25T00:16:06.404Z,981.17
2018-06-25T00:17:05.450Z,981.23
2018-06-25T00:18:05.274Z,981.23
2018-06-25T00:19:05.937Z,981.35
2018-06-25T00:20:05.535Z,981.17
2018-06-25T00:21:05.314Z,981.32
2018-06-25T00:22:05.180Z,981.17
2018-06-25T00:23:05.351Z,981.32
2018-06-25T00:24:04.994Z,981.23
2018-06-25T00:25:05.000Z,981.23
2018-06-25T00:26:05.337Z,981.20
2018-06-25T00:27:05.429Z,981.18
2018-06-25T00:28:05.484Z,981.18
2018-06-25T00:29:05.596Z,981.32
2018-06-25T00:30:05.299Z,981.21
2018-06-25T00:31:05.043Z,981.24
2018-06-25T00:32:05.766Z,981.21
2018-06-25T00:33:05.446Z,981.21
2018-06-25T00:34:05.583Z,981.15
2018-06-25T00:35:05.286Z,981.09
2018-06-25T00:36:05.440Z,980.98
2018-06-25T00:37:05.106Z,981.06
2018-06-25T00:38:05.760Z,981.04
2018-06-25T00:39:05.613Z,981.01
2018-06-25T00:40:05.280Z,981.09
2018-06-25T00:41:05.287Z,980.95
2018-06-25T00:42:05.352Z,981.01
2018-06-25T00:43:05.759Z,980.92
2018-06-25T00:44:06.209Z,980.92
2018-06-25T00:45:05.674Z,980.92
2018-06-25T00:46:05.828Z,980.95
2018-06-25T00:47:06.017Z,980.95
2018-06-25T00:48:05.573Z,980.87
2018-06-25T00:49:05.404Z,980.98
2018-06-25T00:50:05.914Z,980.92
2018-06-25T00:51:05.269Z,980.84
2018-06-25T00:52:05.732Z,980.81
2018-06-25T00:53:05.392Z,980.81
2018-06-25T00:54:05.117Z,980.81
2018-06-25T00:55:05.208Z,980.98
2018-06-25T00:56:05.887Z,980.81
2018-06-25T00:57:05.270Z,980.92
2018-06-25T00:58:05.801Z,980.87
2018-06-25T00:59:05.782Z,980.93
2018-06-25T01:00:05.406Z,980.90
2018-06-25T01:01:05.137Z,980.84
2018-06-25T01:02:10.945Z,980.81
2018-06-25T01:03:06.073Z,980.93
2018-06-25T01:04:06.035Z,980.87
2018-06-25T01:05:05.576Z,981.04
2018-06-25T01:06:05.619Z,980.98
2018-06-25T01:07:05.691Z,980.93
2018-06-25T01:08:06.026Z,980.93
2018-06-25T01:09:05.011Z,981.04
2018-06-25T01:10:05.020Z,980.90
2018-06-25T01:11:05.412Z,981.04
2018-06-25T01:12:05.400Z,981.01
2018-06-25T01:13:05.368Z,980.96
2018-06-25T01:14:05.171Z,981.07
2018-06-25T01:15:05.756Z,980.93
2018-06-25T01:16:04.922Z,981.01
2018-06-25T01:17:05.769Z,981.01
2018-06-25T01:18:05.731Z,980.93
2018-06-25T01:19:05.701Z,980.96
2018-06-25T01:20:05.336Z,980.96
2018-06-25T01:21:05.435Z,981.04
2018-06-25T01:22:05.313Z,981.07
2018-06-25T01:23:05.548Z,981.04
2018-06-25T01:24:05.365Z,981.07
2018-06-25T01:25:05.062Z,981.01
2018-06-25T01:26:05.094Z,981.04
2018-06-25T01:27:05.151Z,981.04
2018-06-25T01:28:05.053Z,981.10
2018-06-25T01:29:05.949Z,981.02
2018-06-25T01:30:05.970Z,980.99
2018-06-25T01:31:05.112Z,981.04
2018-06-25T01:32:05.653Z,981.02
2018-06-25T01:33:05.863Z,981.07
2018-06-25T01:34:05.564Z,981.04
2018-06-25T01:35:05.079Z,981.04
2018-06-25T01:36:05.043Z,981.13
2018-06-25T01:37:06.154Z,981.10
2018-06-25T01:38:05.666Z,981.10
2018-06-25T01:39:05.953Z,981.01
2018-06-25T01:40:05.571Z,981.07
2018-06-25T01:41:06.885Z,980.99
2018-06-25T01:42:05.426Z,981.04
2018-06-25T01:43:04.996Z,980.96
2018-06-25T01:44:05.776Z,981.04
2018-06-25T01:45:05.724Z,980.93
2018-06-25T01:46:05.216Z,981.10
2018-06-25T01:47:05.301Z,981.02
2018-06-25T01:48:05.084Z,981.10
2018-06-25T01:49:05.158Z,980.96
2018-06-25T01:50:05.281Z,980.90
2018-06-25T01:51:04.956Z,981.04
2018-06-25T01:52:05.598Z,981.01
2018-06-25T01:53:05.127Z,980.96
2018-06-25T01:54:05.149Z,981.01
2018-06-25T01:55:05.962Z,981.01
2018-06-25T01:56:05.945Z,981.13
2018-06-25T01:57:05.165Z,981.13
2018-06-25T01:58:05.193Z,981.07
2018-06-25T01:59:10.058Z,980.90
2018-06-25T02:00:05.044Z,980.99
2018-06-25T02:01:06.027Z,981.04
2018-06-25T02:02:05.437Z,981.01
2018-06-25T02:03:05.027Z,981.04
2018-06-25T02:04:04.988Z,981.10
2018-06-25T02:05:05.101Z,980.90
2018-06-25T02:06:10.888Z,980.99
2018-06-25T02:07:05.709Z,981.13
2018-06-25T02:08:05.130Z,981.16
2018-06-25T02:09:10.028Z,980.99
2018-06-25T02:10:05.832Z,981.16
2018-06-25T02:11:05.554Z,981.05
2018-06-25T02:12:05.353Z,981.07
2018-06-25T02:13:05.237Z,981.10
2018-06-25T02:14:05.663Z,981.19
2018-06-25T02:15:06.191Z,981.02
2018-06-25T02:16:06.186Z,981.04
2018-06-25T02:17:05.347Z,981.13
2018-06-25T02:18:06.267Z,981.13
2018-06-25T02:19:05.299Z,981.24
2018-06-25T02:20:05.773Z,981.07
2018-06-25T02:21:05.991Z,981.10
2018-06-25T02:22:05.723Z,981.07
2018-06-25T02:23:05.435Z,981.16
2018-06-25T02:24:05.474Z,981.16
2018-06-25T02:25:06.906Z,981.27
2018-06-25T02:26:05.307Z,981.24
2018-06-25T02:27:05.383Z,981.22
2018-06-25T02:28:04.933Z,981.16
2018-06-25T02:29:07.012Z,981.19
2018-06-25T02:30:05.559Z,981.27
2018-06-25T02:31:05.204Z,981.19
2018-06-25T02:32:05.730Z,981.27
2018-06-25T02:33:06.132Z,981.24
2018-06-25T02:34:06.346Z,981.24
2018-06-25T02:35:05.652Z,981.30
2018-06-25T02:36:05.378Z,981.39
2018-06-25T02:37:05.235Z,981.19
2018-06-25T02:38:05.256Z,981.21
2018-06-25T02:39:05.838Z,981.16
2018-06-25T02:40:04.971Z,981.22
2018-06-25T02:41:05.111Z,981.33
2018-06-25T02:42:06.143Z,981.13
2018-06-25T02:43:06.011Z,981.27
2018-06-25T02:44:06.420Z,981.22
2018-06-25T02:45:05.311Z,981.24
2018-06-25T02:46:05.787Z,981.24
2018-06-25T02:47:05.431Z,981.39
2018-06-25T02:48:05.864Z,981.30
2018-06-25T02:49:05.968Z,981.19
2018-06-25T02:50:05.699Z,981.24
2018-06-25T02:51:05.769Z,981.30
2018-06-25T02:52:05.424Z,981.39
2018-06-25T02:53:05.521Z,981.24
2018-06-25T02:54:05.968Z,981.30
2018-06-25T02:55:05.565Z,981.27
2018-06-25T02:56:05.798Z,981.24
2018-06-25T02:57:05.240Z,981.30
2018-06-25T02:58:05.928Z,981.22
2018-06-25T02:59:05.987Z,981.19
2018-06-25T03:00:05.316Z,981.27
2018-06-25T03:01:05.089Z,981.13
2018-06-25T03:02:05.686Z,981.24
2018-06-25T03:03:05.514Z,981.42
2018-06-25T03:04:05.352Z,981.24
2018-06-25T03:05:05.646Z,981.30
2018-06-25T03:06:05.533Z,981.27
2018-06-25T03:07:05.494Z,981.39
2018-06-25T03:08:05.238Z,981.22
2018-06-25T03:09:05.391Z,981.19
2018-06-25T03:10:05.254Z,981.24
2018-06-25T03:11:05.186Z,981.24
2018-06-25T03:12:06.177Z,981.30
2018-06-25T03:13:05.754Z,981.25
2018-06-25T03:14:05.180Z,981.27
2018-06-25T03:15:05.707Z,981.22
2018-06-25T03:16:05.125Z,981.27
2018-06-25T03:17:05.711Z,981.30
2018-06-25T03:18:10.560Z,981.16
2018-06-25T03:19:04.978Z,981.25
2018-06-25T03:20:05.161Z,981.22
2018-06-25T03:21:05.186Z,981.22
2018-06-25T03:22:05.607Z,981.22
2018-06-25T03:23:05.259Z,981.33
2018-06-25T03:24:05.533Z,981.30
2018-06-25T03:25:05.564Z,981.25
2018-06-25T03:26:05.125Z,981.27
2018-06-25T03:27:10.700Z,981.33
2018-06-25T03:28:05.975Z,981.33
2018-06-25T03:29:05.262Z,981.22
2018-06-25T03:30:05.546Z,981.22
2018-06-25T03:31:05.260Z,981.30
2018-06-25T03:32:05.332Z,981.42
2018-06-25T03:33:05.367Z,981.33
2018-06-25T03:34:05.685Z,981.42
2018-06-25T03:35:05.938Z,981.30
2018-06-25T03:36:05.282Z,981.22
2018-06-25T03:37:05.803Z,981.36
2018-06-25T03:38:05.513Z,981.47
2018-06-25T03:39:05.505Z,981.30
2018-06-25T03:40:05.362Z,981.24
2018-06-25T03:41:05.886Z,981.42
2018-06-25T03:42:05.817Z,981.22
2018-06-25T03:43:05.569Z,981.42
2018-06-25T03:44:05.751Z,981.39
2018-06-25T03:45:10.020Z,981.33
2018-06-25T03:46:05.202Z,981.30
2018-06-25T03:47:05.532Z,981.33
2018-06-25T03:48:05.573Z,981.42
2018-06-25T03:49:05.379Z,981.39
2018-06-25T03:50:05.204Z,981.41
2018-06-25T03:51:05.281Z,981.44
2018-06-25T03:52:05.385Z,981.44
2018-06-25T03:53:04.959Z,981.41
2018-06-25T03:54:05.065Z,981.58
2018-06-25T03:55:05.783Z,981.36
2018-06-25T03:56:05.648Z,981.41
2018-06-25T03:57:05.469Z,981.41
2018-06-25T03:58:05.419Z,981.39
2018-06-25T03:59:05.858Z,981.41
2018-06-25T04:00:05.311Z,981.44
2018-06-25T04:01:05.643Z,981.44
2018-06-25T04:02:05.812Z,981.53
2018-06-25T04:03:06.108Z,981.53
2018-06-25T04:04:05.284Z,981.41
2018-06-25T04:05:05.888Z,981.41
2018-06-25T04:06:05.394Z,981.47
2018-06-25T04:07:05.490Z,981.44
2018-06-25T04:08:05.514Z,981.44
2018-06-25T04:09:05.405Z,981.44
2018-06-25T04:10:05.461Z,981.47
2018-06-25T04:11:05.814Z,981.56
2018-06-25T04:12:10.909Z,981.50
2018-06-25T04:13:06.048Z,981.57
2018-06-25T04:14:05.081Z,981.44
2018-06-25T04:15:05.709Z,981.47
2018-06-25T04:16:05.181Z,981.38
2018-06-25T04:17:05.757Z,981.50
2018-06-25T04:18:05.436Z,981.53
2018-06-25T04:19:05.585Z,981.56
2018-06-25T04:20:05.091Z,981.57
2018-06-25T04:21:05.585Z,981.53
2018-06-25T04:22:05.346Z,981.57
2018-06-25T04:23:05.197Z,981.55
2018-06-25T04:24:05.095Z,981.57
2018-06-25T04:25:05.606Z,981.60
2018-06-25T04:26:05.000Z,981.60
2018-06-25T04:27:10.813Z,981.52
2018-06-25T04:28:05.735Z,981.55
2018-06-25T04:29:05.472Z,981.60
2018-06-25T04:30:05.010Z,981.49
2018-06-25T04:31:10.836Z,981.60
2018-06-25T04:32:05.725Z,981.63
2018-06-25T04:33:05.346Z,981.66
2018-06-25T04:34:05.167Z,981.52
2018-06-25T04:35:06.511Z,981.66
2018-06-25T04:36:05.990Z,981.68
2018-06-25T04:37:05.152Z,981.74
2018-06-25T04:38:05.634Z,981.74
2018-06-25T04:39:05.647Z,981.63
2018-06-25T04:40:05.281Z,981.60
2018-06-25T04:41:05.118Z,981.65
2018-06-25T04:42:05.892Z,981.74
2018-06-25T04:43:05.751Z,981.68
2018-06-25T04:44:05.564Z,981.71
2018-06-25T04:45:05.010Z,981.77
2018-06-25T04:46:05.119Z,981.82
2018-06-25T04:47:06.022Z,981.80
2018-06-25T04:48:06.124Z,981.68
2018-06-25T04:49:05.708Z,981.80
2018-06-25T04:50:05.857Z,981.85
2018-06-25T04:51:05.515Z,981.80
2018-06-25T04:52:05.193Z,981.74
2018-06-25T04:53:05.117Z,981.71
2018-06-25T04:54:05.114Z,981.85
2018-06-25T04:55:05.694Z,981.80
2018-06-25T04:56:05.793Z,981.74
2018-06-25T04:57:05.848Z,981.85
2018-06-25T04:58:05.872Z,981.85
2018-06-25T04:59:05.816Z,981.91
2018-06-25T05:00:05.762Z,981.91
2018-06-25T05:01:05.908Z,981.97
2018-06-25T05:02:06.175Z,981.88
2018-06-25T05:03:05.480Z,981.88
2018-06-25T05:04:05.613Z,982.00
2018-06-25T05:05:05.846Z,982.00
2018-06-25T05:06:05.977Z,982.08
2018-06-25T05:07:05.987Z,982.08
2018-06-25T05:08:05.715Z,982.00
2018-06-25T05:09:05.451Z,981.97
2018-06-25T05:10:10.866Z,981.88
2018-06-25T05:11:06.228Z,981.97
2018-06-25T05:12:06.174Z,982.05
2018-06-25T05:13:05.583Z,982.00
2018-06-25T05:14:07.326Z,982.02
2018-06-25T05:15:10.542Z,982.08
2018-06-25T05:16:05.205Z,982.00
2018-06-25T05:17:05.595Z,981.91
2018-06-25T05:18:05.589Z,981.94
2018-06-25T05:19:05.888Z,981.94
2018-06-25T05:20:05.310Z,982.08
2018-06-25T05:21:05.469Z,982.14
2018-06-25T05:22:05.734Z,982.20
2018-06-25T05:23:05.409Z,981.94
2018-06-25T05:24:05.282Z,982.05
2018-06-25T05:25:05.001Z,982.02
2018-06-25T05:26:05.208Z,981.94
2018-06-25T05:27:05.839Z,981.99
2018-06-25T05:28:05.091Z,982.08
2018-06-25T05:29:05.466Z,982.08
2018-06-25T05:30:06.158Z,982.19
2018-06-25T05:31:05.621Z,982.08
2018-06-25T05:32:05.725Z,982.16
2018-06-25T05:33:05.823Z,982.05
2018-06-25T05:34:05.449Z,982.13
2018-06-25T05:35:05.651Z,982.19
2018-06-25T05:36:05.668Z,982.16
2018-06-25T05:37:05.764Z,982.22
2018-06-25T05:38:07.381Z,982.19
2018-06-25T05:39:05.377Z,982.28
2018-06-25T05:40:05.637Z,982.22
2018-06-25T05:41:05.404Z,982.22
2018-06-25T05:42:05.626Z,982.25
2018-06-25T05:43:05.428Z,982.36
2018-06-25T05:44:05.749Z,982.45
2018-06-25T05:45:05.862Z,982.28
2018-06-25T05:46:04.904Z,982.39
2018-06-25T05:47:05.857Z,982.42
2018-06-25T05:48:05.481Z,982.31
2018-06-25T05:49:05.315Z,982.36
2018-06-25T05:50:05.319Z,982.51
2018-06-25T05:51:05.004Z,982.34
2018-06-25T05:52:05.707Z,982.45
2018-06-25T05:53:05.576Z,982.39
2018-06-25T05:54:05.230Z,982.34
2018-06-25T05:55:05.352Z,982.40
2018-06-25T05:56:05.400Z,982.34
2018-06-25T05:57:05.945Z,982.45
2018-06-25T05:58:05.687Z,982.40
2018-06-25T05:59:05.279Z,982.40
2018-06-25T06:00:05.921Z,982.25
2018-06-25T06:01:05.778Z,982.48
2018-06-25T06:02:05.932Z,982.39
2018-06-25T06:03:05.687Z,982.42
2018-06-25T06:04:05.618Z,982.45
2018-06-25T06:05:05.380Z,982.31
2018-06-25T06:06:04.981Z,982.57
2018-06-25T06:07:05.668Z,982.42
2018-06-25T06:08:05.802Z,982.62
2018-06-25T06:09:05.347Z,982.51
2018-06-25T06:10:05.350Z,982.51
2018-06-25T06:11:04.976Z,982.59
2018-06-25T06:12:05.690Z,982.53
2018-06-25T06:13:05.819Z,982.48
2018-06-25T06:14:06.011Z,982.53
2018-06-25T06:15:05.134Z,982.50
2018-06-25T06:16:05.435Z,982.53
2018-06-25T06:17:05.061Z,982.45
2018-06-25T06:18:05.572Z,982.59
2018-06-25T06:19:05.198Z,982.53
2018-06-25T06:20:05.024Z,982.56
2018-06-25T06:21:05.751Z,982.64
2018-06-25T06:22:05.943Z,982.56
2018-06-25T06:23:05.474Z,982.61
2018-06-25T06:24:05.460Z,982.70
2018-06-25T06:25:05.623Z,982.58
2018-06-25T06:26:05.674Z,982.64
2018-06-25T06:27:05.424Z,982.55
2018-06-25T06:28:05.482Z,982.58
2018-06-25T06:29:04.935Z,982.47
2018-06-25T06:30:05.090Z,982.44
2018-06-25T06:31:05.969Z,982.61
2018-06-25T06:32:05.790Z,982.67
2018-06-25T06:33:05.990Z,982.67
2018-06-25T06:34:05.878Z,982.67
2018-06-25T06:35:05.067Z,982.61
2018-06-25T06:36:05.176Z,982.66
2018-06-25T06:37:05.722Z,982.66
2018-06-25T06:38:05.012Z,982.72
2018-06-25T06:39:05.083Z,982.61
2018-06-25T06:40:05.819Z,982.72
2018-06-25T06:41:05.715Z,982.55
2018-06-25T06:42:05.921Z,982.72
2018-06-25T06:43:05.366Z,982.72
2018-06-25T06:44:05.393Z,982.61
2018-06-25T06:45:05.674Z,982.67
2018-06-25T06:46:05.265Z,982.80
2018-06-25T06:47:05.248Z,982.72
2018-06-25T06:48:05.479Z,982.72
2018-06-25T06:49:05.916Z,982.86
2018-06-25T06:50:05.835Z,982.72
2018-06-25T06:51:05.108Z,982.58
2018-06-25T06:52:05.544Z,982.70
2018-06-25T06:53:06.018Z,982.67
2018-06-25T06:54:05.669Z,982.70
2018-06-25T06:55:05.416Z,982.70
2018-06-25T06:56:05.863Z,982.72
2018-06-25T06:57:05.492Z,982.72
2018-06-25T06:58:05.216Z,982.64
2018-06-25T06:59:05.547Z,982.72
2018-06-25T07:00:05.345Z,982.75
2018-06-25T07:01:05.499Z,982.67
2018-06-25T07:02:06.423Z,982.80
2018-06-25T07:03:05.834Z,982.80
2018-06-25T07:04:05.705Z,982.86
2018-06-25T07:05:05.878Z,982.83
2018-06-25T07:06:10.427Z,982.92
2018-06-25T07:07:05.686Z,982.94
2018-06-25T07:08:05.817Z,982.83
2018-06-25T07:09:05.461Z,982.94
2018-06-25T07:10:05.459Z,982.91
2018-06-25T07:11:05.541Z,982.94
2018-06-25T07:12:05.242Z,982.89
2018-06-25T07:13:06.317Z,982.94
2018-06-25T07:14:05.656Z,982.97
2018-06-25T07:15:05.596Z,982.91
2018-06-25T07:16:06.001Z,982.97
2018-06-25T07:17:05.773Z,982.97
2018-06-25T07:18:05.366Z,982.91
2018-06-25T07:19:05.975Z,982.94
2018-06-25T07:20:06.060Z,982.97
2018-06-25T07:21:05.568Z,982.82
2018-06-25T07:22:05.037Z,982.94
2018-06-25T07:23:05.460Z,982.79
2018-06-25T07:24:06.036Z,982.97
2018-06-25T07:25:05.598Z,982.94
2018-06-25T07:26:05.120Z,982.88
2018-06-25T07:27:05.864Z,982.85
2018-06-25T07:28:05.524Z,983.10
2018-06-25T07:29:06.098Z,982.99
2018-06-25T07:30:05.416Z,982.87
2018-06-25T07:31:05.307Z,982.90
2018-06-25T07:32:05.614Z,982.78
2018-06-25T07:33:04.977Z,982.92
2018-06-25T07:34:05.119Z,982.84
2018-06-25T07:35:06.074Z,982.70
2018-06-25T07:36:05.180Z,982.78
2018-06-25T07:37:05.498Z,982.70
2018-06-25T07:38:06.350Z,982.92
2018-06-25T07:39:05.504Z,982.89
2018-06-25T07:40:05.244Z,982.92
2018-06-25T07:41:05.524Z,982.91
2018-06-25T07:42:05.176Z,982.97
2018-06-25T07:43:05.634Z,982.86
2018-06-25T07:44:05.875Z,982.88
2018-06-25T07:45:05.715Z,982.85
2018-06-25T07:46:05.951Z,982.82
2018-06-25T07:47:06.128Z,982.82
2018-06-25T07:48:05.590Z,982.90
2018-06-25T07:49:05.322Z,983.05
2018-06-25T07:50:05.869Z,982.84
2018-06-25T07:51:05.881Z,982.93
2018-06-25T07:52:05.509Z,982.93
2018-06-25T07:53:05.134Z,982.90
2018-06-25T07:54:05.478Z,982.95
2018-06-25T07:55:05.427Z,982.95
2018-06-25T07:56:06.291Z,982.95
2018-06-25T07:57:05.364Z,982.92
2018-06-25T07:58:05.239Z,982.98
2018-06-25T07:59:05.894Z,982.81
2018-06-25T08:00:06.138Z,982.90
2018-06-25T08:01:05.101Z,982.84
2018-06-25T08:02:05.730Z,982.92
2018-06-25T08:03:05.458Z,982.78
2018-06-25T08:04:05.119Z,982.92
2018-06-25T08:05:05.561Z,982.97
2018-06-25T08:06:05.547Z,982.83
2018-06-25T08:07:05.430Z,983.03
2018-06-25T08:08:05.491Z,982.88
2018-06-25T08:09:05.290Z,982.91
2018-06-25T08:10:05.613Z,982.96
2018-06-25T08:11:05.801Z,982.99
2018-06-25T08:12:06.034Z,982.96
2018-06-25T08:13:05.934Z,982.82
2018-06-25T08:14:05.118Z,982.99
2018-06-25T08:15:06.375Z,982.90
2018-06-25T08:16:05.127Z,982.96
2018-06-25T08:17:05.722Z,982.98
2018-06-25T08:18:05.402Z,982.92
2018-06-25T08:19:05.845Z,982.84
2018-06-25T08:20:05.786Z,982.89
2018-06-25T08:21:05.643Z,982.89
2018-06-25T08:22:05.235Z,983.04
2018-06-25T08:23:05.882Z,983.03
2018-06-25T08:24:05.603Z,983.09
2018-06-25T08:25:05.513Z,983.12
2018-06-25T08:26:05.651Z,982.89
2018-06-25T08:27:05.260Z,983.00
2018-06-25T08:28:05.357Z,983.03
2018-06-25T08:29:04.980Z,982.97
2018-06-25T08:30:05.810Z,983.05
2018-06-25T08:31:06.102Z,983.11
2018-06-25T08:32:05.814Z,983.08
2018-06-25T08:33:05.298Z,983.23
2018-06-25T08:34:05.301Z,983.02
2018-06-25T08:35:05.492Z,983.11
2018-06-25T08:36:05.521Z,983.11
2018-06-25T08:37:05.821Z,983.16
2018-06-25T08:38:05.461Z,983.13
2018-06-25T08:39:05.145Z,983.19
2018-06-25T08:40:05.450Z,983.22
2018-06-25T08:41:05.184Z,983.28
2018-06-25T08:42:05.990Z,983.30
2018-06-25T08:43:05.509Z,983.22
2018-06-25T08:44:05.228Z,983.27
2018-06-25T08:45:05.342Z,983.33
2018-06-25T08:46:05.962Z,983.22
2018-06-25T08:47:05.467Z,983.35
2018-06-25T08:48:05.149Z,983.24
2018-06-25T08:49:05.088Z,983.24
2018-06-25T08:50:06.102Z,983.24
2018-06-25T08:51:06.113Z,983.46
2018-06-25T08:52:06.213Z,983.27
2018-06-25T08:53:05.227Z,983.37
2018-06-25T08:54:05.266Z,983.37
2018-06-25T08:55:05.770Z,983.37
2018-06-25T08:56:05.850Z,983.26
2018-06-25T08:57:05.839Z,983.40
2018-06-25T08:58:05.984Z,983.20
2018-06-25T08:59:05.326Z,983.32
2018-06-25T09:00:05.070Z,983.23
2018-06-25T09:01:05.091Z,983.20
2018-06-25T09:02:05.200Z,983.20
2018-06-25T09:03:06.293Z,983.22
2018-06-25T09:04:05.894Z,983.16
2018-06-25T09:05:05.508Z,983.35
2018-06-25T09:06:06.016Z,983.38
2018-06-25T09:07:05.881Z,983.22
2018-06-25T09:08:05.694Z,983.33
2018-06-25T09:09:05.497Z,983.27
2018-06-25T09:10:04.942Z,983.15
2018-06-25T09:11:05.244Z,983.27
2018-06-25T09:12:05.949Z,983.27
2018-06-25T09:13:05.932Z,983.32
2018-06-25T09:14:05.824Z,983.24
2018-06-25T09:15:05.680Z,983.35
2018-06-25T09:16:06.044Z,983.29
2018-06-25T09:17:05.910Z,983.35
2018-06-25T09:18:05.946Z,983.26
2018-06-25T09:19:06.024Z,983.32
2018-06-25T09:20:05.670Z,983.17
2018-06-25T09:21:05.550Z,983.20
2018-06-25T09:22:05.807Z,983.11
2018-06-25T09:23:05.197Z,983.31
2018-06-25T09:24:04.956Z,983.28
2018-06-25T09:25:05.873Z,983.31
2018-06-25T09:26:05.862Z,983.31
2018-06-25T09:27:05.444Z,983.31
2018-06-25T09:28:05.163Z,983.34
2018-06-25T09:29:05.284Z,983.25
2018-06-25T09:30:05.373Z,983.33
2018-06-25T09:31:05.831Z,983.33
2018-06-25T09:32:05.617Z,983.46
2018-06-25T09:33:05.414Z,983.32
2018-06-25T09:34:10.834Z,983.46
2018-06-25T09:35:05.800Z,983.34
2018-06-25T09:36:06.111Z,983.45
2018-06-25T09:37:05.493Z,983.34
2018-06-25T09:38:05.536Z,983.34
2018-06-25T09:39:05.256Z,983.47
2018-06-25T09:40:05.195Z,983.47
2018-06-25T09:41:05.524Z,983.59
2018-06-25T09:42:04.971Z,983.48
2018-06-25T09:43:05.102Z,983.48
2018-06-25T09:44:10.082Z,983.48
2018-06-25T09:45:05.052Z,983.51
2018-06-25T09:46:05.754Z,983.54
2018-06-25T09:47:05.994Z,983.32
2018-06-25T09:48:05.023Z,983.46
2018-06-25T09:49:05.215Z,983.57
2018-06-25T09:50:05.056Z,983.52
2018-06-25T09:51:05.734Z,983.46
2018-06-25T09:52:10.474Z,983.58
2018-06-25T09:53:05.455Z,983.44
2018-06-25T09:54:05.937Z,983.52
2018-06-25T09:55:06.085Z,983.47
2018-06-25T09:56:05.448Z,983.53
2018-06-25T09:57:05.394Z,983.61
2018-06-25T09:58:05.151Z,983.56
2018-06-25T09:59:05.537Z,983.44
2018-06-25T10:00:05.873Z,983.38
2018-06-25T10:01:05.671Z,983.56
2018-06-25T10:02:05.604Z,983.50
2018-06-25T10:03:05.782Z,983.67
2018-06-25T10:04:05.255Z,983.64
2018-06-25T10:05:05.903Z,983.61
2018-06-25T10:06:05.566Z,983.50
2018-06-25T10:07:05.260Z,983.56
2018-06-25T10:08:06.024Z,983.50
2018-06-25T10:09:05.760Z,983.56
2018-06-25T10:10:05.478Z,983.56
2018-06-25T10:11:05.537Z,983.53
2018-06-25T10:12:05.635Z,983.64
2018-06-25T10:13:05.420Z,983.58
2018-06-25T10:14:05.464Z,983.50
2018-06-25T10:15:05.550Z,983.52
2018-06-25T10:16:05.118Z,983.50
2018-06-25T10:17:05.795Z,983.61
2018-06-25T10:18:05.781Z,983.52
2018-06-25T10:19:05.216Z,983.53
2018-06-25T10:20:05.044Z,983.38
2018-06-25T10:21:05.738Z,983.61
2018-06-25T10:22:05.423Z,983.52
2018-06-25T10:23:05.823Z,983.55
2018-06-25T10:24:06.227Z,983.43
2018-06-25T10:25:11.113Z,983.58
2018-06-25T10:26:05.262Z,983.40
2018-06-25T10:27:05.981Z,983.40
2018-06-25T10:28:05.564Z,983.36
2018-06-25T10:29:05.582Z,983.39
2018-06-25T10:30:06.042Z,983.39
2018-06-25T10:31:05.346Z,983.41
2018-06-25T10:32:05.290Z,983.38
2018-06-25T10:33:05.791Z,983.49
2018-06-25T10:34:05.270Z,983.40
2018-06-25T10:35:10.183Z,983.29
2018-06-25T10:36:05.908Z,983.32
2018-06-25T10:37:05.588Z,983.40
2018-06-25T10:38:20.626Z,983.40
2018-06-25T10:39:05.999Z,983.43
2018-06-25T10:40:05.728Z,983.46
2018-06-25T10:41:05.435Z,983.35
2018-06-25T10:42:05.315Z,983.49
2018-06-25T10:43:05.027Z,983.52
2018-06-25T10:44:08.491Z,983.35
2018-06-25T10:45:05.326Z,983.41
2018-06-25T10:46:05.434Z,983.44
2018-06-25T10:47:05.581Z,983.35
2018-06-25T10:48:05.451Z,983.50
2018-06-25T10:49:06.256Z,983.47
2018-06-25T10:50:05.269Z,983.47
2018-06-25T10:51:05.429Z,983.41
2018-06-25T10:52:05.990Z,983.41
2018-06-25T10:53:06.320Z,983.41
2018-06-25T10:54:05.491Z,983.41
2018-06-25T10:55:05.289Z,983.33
2018-06-25T10:56:06.054Z,983.27
2018-06-25T10:57:05.964Z,983.33
2018-06-25T10:58:11.687Z,983.44
2018-06-25T10:59:10.728Z,983.30
2018-06-25T11:00:06.111Z,983.35
2018-06-25T11:01:05.430Z,983.33
2018-06-25T11:02:05.481Z,983.33
2018-06-25T11:03:05.261Z,983.35
2018-06-25T11:04:06.595Z,983.30
2018-06-25T11:05:05.723Z,983.26
2018-06-25T11:06:06.899Z,983.29
2018-06-25T11:07:11.243Z,983.32
2018-06-25T11:08:05.278Z,983.17
2018-06-25T11:09:05.905Z,983.25
2018-06-25T11:10:05.651Z,983.33
2018-06-25T11:11:06.089Z,983.21
2018-06-25T11:12:05.967Z,983.33
2018-06-25T11:13:05.679Z,983.18
2018-06-25T11:14:05.663Z,983.27
2018-06-25T11:15:05.773Z,983.27
2018-06-25T11:16:05.905Z,983.21
2018-06-25T11:17:06.020Z,983.21
2018-06-25T11:18:05.149Z,983.35
2018-06-25T11:19:05.172Z,983.32
2018-06-25T11:20:04.992Z,983.27
2018-06-25T11:21:05.471Z,983.35
2018-06-25T11:22:05.872Z,983.30
2018-06-25T11:23:05.491Z,983.40
2018-06-25T11:24:10.189Z,983.30
2018-06-25T11:25:05.806Z,983.43
2018-06-25T11:26:05.905Z,983.38
2018-06-25T11:27:06.322Z,983.30
2018-06-25T11:28:05.265Z,983.33
2018-06-25T11:29:05.441Z,983.35
2018-06-25T11:30:05.338Z,983.35
2018-06-25T11:31:05.915Z,983.35
2018-06-25T11:32:05.921Z,983.28
2018-06-25T11:33:05.629Z,983.22
2018-06-25T11:34:05.245Z,983.28
2018-06-25T11:35:05.349Z,983.22
2018-06-25T11:36:05.145Z,983.25
2018-06-25T11:37:06.623Z,983.25
2018-06-25T11:38:05.626Z,983.22
2018-06-25T11:39:05.266Z,983.19
2018-06-25T11:40:05.285Z,983.25
2018-06-25T11:41:05.947Z,983.28
2018-06-25T11:42:05.447Z,983.22
2018-06-25T11:43:04.959Z,983.30
2018-06-25T11:44:05.739Z,983.24
2018-06-25T11:45:05.228Z,983.27
2018-06-25T11:46:05.992Z,983.18
2018-06-25T11:47:05.277Z,983.21
2018-06-25T11:48:05.139Z,983.35
2018-06-25T11:49:05.506Z,983.15
2018-06-25T11:50:06.368Z,983.26
2018-06-25T11:51:05.720Z,983.20
2018-06-25T11:52:05.707Z,983.32
2018-06-25T11:53:05.611Z,983.23
2018-06-25T11:54:05.344Z,983.32
2018-06-25T11:55:06.062Z,983.35
2018-06-25T11:56:06.155Z,983.23
2018-06-25T11:57:05.238Z,983.26
2018-06-25T11:58:05.257Z,983.29
2018-06-25T11:59:05.661Z,983.46
2018-06-25T12:00:05.515Z,983.29
2018-06-25T12:01:05.284Z,983.26
2018-06-25T12:02:05.129Z,983.21
2018-06-25T12:03:06.520Z,983.24
2018-06-25T12:04:05.052Z,983.32
2018-06-25T12:05:05.659Z,983.35
2018-06-25T12:06:05.435Z,983.24
2018-06-25T12:07:05.631Z,983.35
2018-06-25T12:08:05.760Z,983.24
2018-06-25T12:09:05.516Z,983.24
2018-06-25T12:10:10.427Z,983.18
2018-06-25T12:11:05.950Z,983.26
2018-06-25T12:12:05.133Z,983.21
2018-06-25T12:13:05.952Z,983.23
2018-06-25T12:14:05.332Z,983.17
2018-06-25T12:15:05.316Z,983.20
2018-06-25T12:16:05.337Z,983.17
2018-06-25T12:17:05.345Z,983.19
2018-06-25T12:18:05.029Z,983.16
2018-06-25T12:19:05.925Z,983.25
2018-06-25T12:20:05.835Z,983.25
2018-06-25T12:21:05.666Z,983.16
2018-06-25T12:22:05.458Z,983.28
2018-06-25T12:23:05.382Z,983.04
2018-06-25T12:24:05.433Z,983.10
2018-06-25T12:25:05.597Z,983.22
2018-06-25T12:26:06.057Z,983.18
2018-06-25T12:27:05.205Z,983.15
2018-06-25T12:28:05.015Z,983.12